createdAt,value
2023-04-30T00:00:55.922Z,10.75
2023-04-30T00:03:24.732Z,10.76
2023-04-30T00:05:52.166Z,10.77
2023-04-30T00:08:19.100Z,10.71
2023-04-30T00:10:46.014Z,10.78
2023-04-30T00:13:14.286Z,10.73
2023-04-30T00:15:41.850Z,10.70
2023-04-30T00:18:09.149Z,10.67
2023-04-30T00:20:36.066Z,10.71
2023-04-30T00:23:03.646Z,10.66
2023-04-30T00:25:30.434Z,10.69
2023-04-30T00:27:57.282Z,10.66
2023-04-30T00:30:24.041Z,10.66
2023-04-30T00:32:50.925Z,10.67
2023-04-30T00:35:17.996Z,10.67
2023-04-30T00:37:45.074Z,10.66
2023-04-30T00:40:12.418Z,10.60
2023-04-30T00:42:39.186Z,10.66
2023-04-30T00:45:06.620Z,10.67
2023-04-30T00:47:33.546Z,10.62
2023-04-30T00:50:00.493Z,10.69
2023-04-30T00:52:27.644Z,10.67
2023-04-30T00:54:57.832Z,10.65
2023-04-30T00:57:25.782Z,10.63
2023-04-30T00:59:53.018Z,10.63
2023-04-30T01:02:20.300Z,10.62
2023-04-30T01:04:47.609Z,10.65
2023-04-30T01:07:14.445Z,10.57
2023-04-30T01:09:41.248Z,10.58
2023-04-30T01:12:16.348Z,10.58
2023-04-30T01:14:57.584Z,10.60
2023-04-30T01:17:29.670Z,10.58
2023-04-30T01:19:56.974Z,10.61
2023-04-30T01:22:26.419Z,10.55
2023-04-30T01:25:25.896Z,10.62
2023-04-30T01:27:52.844Z,10.64
2023-04-30T01:30:21.535Z,10.58
2023-04-30T01:32:48.361Z,10.60
2023-04-30T01:35:15.247Z,10.56
2023-04-30T01:38:05.912Z,10.47
2023-04-30T01:40:43.497Z,10.50
2023-04-30T01:43:33.439Z,10.48
2023-04-30T01:46:31.457Z,10.45
2023-04-30T01:49:27.436Z,10.55
2023-04-30T01:52:05.257Z,10.51
2023-04-30T01:54:53.197Z,10.55
2023-04-30T01:57:40.607Z,10.43
2023-04-30T02:00:12.337Z,10.38
2023-04-30T02:02:39.217Z,10.38
2023-04-30T02:05:06.621Z,10.28
2023-04-30T02:07:45.441Z,10.34
2023-04-30T02:10:12.915Z,10.32
2023-04-30T02:12:40.208Z,10.33
2023-04-30T02:15:08.084Z,10.33
2023-04-30T02:17:35.144Z,10.33
2023-04-30T02:20:02.341Z,10.30
2023-04-30T02:22:29.337Z,10.32
2023-04-30T02:24:56.229Z,10.32
2023-04-30T02:27:24.969Z,10.42
2023-04-30T02:29:52.244Z,10.31
2023-04-30T02:32:19.667Z,10.37
2023-04-30T02:34:46.442Z,10.34
2023-04-30T02:37:13.321Z,10.29
2023-04-30T02:39:40.087Z,10.28
2023-04-30T02:42:07.673Z,10.29
2023-04-30T02:44:35.151Z,10.34
2023-04-30T02:47:02.749Z,10.33
2023-04-30T02:49:30.155Z,10.36
2023-04-30T02:51:56.907Z,10.32
2023-04-30T02:54:23.723Z,10.32
2023-04-30T02:56:50.887Z,10.30
2023-04-30T02:59:17.626Z,10.33
2023-04-30T03:01:44.505Z,10.26
2023-04-30T03:04:11.323Z,10.26
2023-04-30T03:06:38.252Z,10.26
2023-04-30T03:09:05.180Z,10.26
2023-04-30T03:11:32.054Z,10.17
2023-04-30T03:13:58.995Z,10.12
2023-04-30T03:16:25.942Z,10.16
2023-04-30T03:18:52.736Z,10.07
2023-04-30T03:21:19.588Z,10.07
2023-04-30T03:23:46.513Z,10.16
2023-04-30T03:26:13.337Z,10.09
2023-04-30T03:28:40.094Z,10.01
2023-04-30T03:31:06.981Z,10.08
2023-04-30T03:33:34.422Z,9.99
2023-04-30T03:36:01.392Z,9.91
2023-04-30T03:38:28.147Z,9.89
2023-04-30T03:40:54.901Z,9.93
2023-04-30T03:43:22.335Z,9.90
2023-04-30T03:45:49.197Z,9.74
2023-04-30T03:48:16.025Z,9.76
2023-04-30T03:50:42.890Z,9.84
2023-04-30T03:53:09.724Z,9.90
2023-04-30T03:55:36.599Z,9.95
2023-04-30T03:58:03.833Z,9.84
2023-04-30T04:00:31.392Z,9.83
2023-04-30T04:02:59.730Z,9.81
2023-04-30T04:05:26.985Z,9.86
2023-04-30T04:07:53.756Z,9.87
2023-04-30T04:10:20.800Z,9.83
2023-04-30T04:12:47.650Z,9.80
2023-04-30T04:15:14.565Z,9.89
2023-04-30T04:17:41.515Z,9.86
2023-04-30T04:20:08.994Z,9.91
2023-04-30T04:22:36.056Z,9.93
2023-04-30T04:25:02.862Z,9.90
2023-04-30T04:27:29.728Z,9.89
2023-04-30T04:29:57.256Z,9.87
2023-04-30T04:32:24.917Z,9.89
2023-04-30T04:34:54.494Z,9.90
2023-04-30T04:37:21.311Z,9.89
2023-04-30T04:39:48.156Z,9.92
2023-04-30T04:42:16.834Z,9.98
2023-04-30T04:44:44.173Z,9.95
2023-04-30T04:47:12.904Z,9.96
2023-04-30T04:49:39.778Z,9.99
2023-04-30T04:52:06.729Z,9.98
2023-04-30T04:54:34.002Z,10.06
2023-04-30T04:57:00.746Z,10.06
2023-04-30T04:59:27.531Z,10.05
2023-04-30T05:01:54.348Z,10.06
2023-04-30T05:04:21.139Z,10.12
2023-04-30T05:06:47.995Z,10.15
2023-04-30T05:09:14.920Z,10.26
2023-04-30T05:11:41.820Z,10.32
2023-04-30T05:14:08.664Z,10.43
2023-04-30T05:16:35.473Z,10.41
2023-04-30T05:19:02.315Z,10.50
2023-04-30T05:21:29.962Z,10.60
2023-04-30T05:23:56.819Z,10.58
2023-04-30T05:26:24.679Z,10.57
2023-04-30T05:28:52.639Z,10.73
2023-04-30T05:31:21.068Z,10.77
2023-04-30T05:33:48.263Z,10.92
2023-04-30T05:36:15.207Z,11.04
2023-04-30T05:38:42.303Z,11.07
2023-04-30T05:41:12.770Z,11.06
2023-04-30T05:43:39.565Z,11.06
2023-04-30T05:46:06.787Z,10.89
2023-04-30T05:48:33.644Z,10.84
2023-04-30T05:51:00.467Z,10.92
2023-04-30T05:53:27.385Z,10.91
2023-04-30T05:55:54.142Z,11.24
2023-04-30T05:58:21.014Z,11.12
2023-04-30T06:00:52.747Z,10.99
2023-04-30T06:03:20.234Z,10.93
2023-04-30T06:05:47.868Z,11.16
2023-04-30T06:08:14.854Z,11.37
2023-04-30T06:10:42.728Z,11.23
2023-04-30T06:13:09.588Z,11.21
2023-04-30T06:15:36.428Z,11.06
2023-04-30T06:18:03.331Z,11.40
2023-04-30T06:20:30.260Z,11.72
2023-04-30T06:22:57.180Z,11.62
2023-04-30T06:25:23.968Z,11.88
2023-04-30T06:27:52.883Z,11.91
2023-04-30T06:30:20.210Z,12.04
2023-04-30T06:32:47.203Z,12.22
2023-04-30T06:35:15.131Z,11.98
2023-04-30T06:37:42.034Z,12.05
2023-04-30T06:40:09.207Z,11.78
2023-04-30T06:42:36.291Z,11.76
2023-04-30T06:45:03.844Z,11.91
2023-04-30T06:47:34.891Z,12.08
2023-04-30T06:50:02.428Z,11.79
2023-04-30T06:52:31.445Z,12.05
2023-04-30T06:54:58.219Z,12.25
2023-04-30T06:57:25.945Z,12.14
2023-04-30T06:59:53.102Z,12.31
2023-04-30T07:02:21.932Z,12.30
2023-04-30T07:04:49.640Z,12.34
2023-04-30T07:07:16.434Z,12.68
2023-04-30T07:09:43.285Z,12.56
2023-04-30T07:12:12.249Z,12.53
2023-04-30T07:14:39.051Z,12.61
2023-04-30T07:17:06.307Z,12.88
2023-04-30T07:19:33.102Z,12.63
2023-04-30T07:21:59.900Z,12.80
2023-04-30T07:24:26.636Z,13.13
2023-04-30T07:26:53.374Z,13.05
2023-04-30T07:29:20.388Z,13.19
2023-04-30T07:31:47.160Z,13.05
2023-04-30T07:34:14.223Z,13.15
2023-04-30T07:36:41.380Z,13.56
2023-04-30T07:39:08.325Z,13.60
2023-04-30T07:41:35.148Z,13.47
2023-04-30T07:44:02.077Z,13.64
2023-04-30T07:46:29.207Z,14.01
2023-04-30T07:48:56.043Z,13.66
2023-04-30T07:51:23.388Z,14.64
2023-04-30T07:53:50.199Z,14.33
2023-04-30T07:56:16.983Z,14.21
2023-04-30T07:58:44.122Z,14.75
2023-04-30T08:01:11.051Z,14.61
2023-04-30T08:03:38.065Z,14.72
2023-04-30T08:06:06.160Z,14.80
2023-04-30T08:08:32.951Z,15.44
2023-04-30T08:10:59.970Z,15.17
2023-04-30T08:13:26.678Z,15.23
2023-04-30T08:15:53.482Z,15.24
2023-04-30T08:18:20.412Z,15.50
2023-04-30T08:20:47.296Z,15.34
2023-04-30T08:23:20.670Z,15.29
2023-04-30T08:25:47.465Z,16.65
2023-04-30T08:28:14.220Z,16.12
2023-04-30T08:30:40.945Z,16.24
2023-04-30T08:33:07.889Z,16.48
2023-04-30T08:35:34.760Z,16.09
2023-04-30T08:38:01.605Z,16.00
2023-04-30T08:40:43.437Z,16.29
2023-04-30T08:43:15.920Z,17.08
2023-04-30T08:45:43.085Z,16.56
2023-04-30T08:48:15.344Z,16.33
2023-04-30T08:50:42.288Z,17.21
2023-04-30T08:53:11.225Z,17.05
2023-04-30T08:55:40.642Z,16.42
2023-04-30T08:58:10.548Z,17.63
2023-04-30T09:00:39.037Z,16.53
2023-04-30T09:03:07.907Z,17.24
2023-04-30T09:05:34.858Z,17.12
2023-04-30T09:08:03.991Z,16.83
2023-04-30T09:10:35.765Z,17.30
2023-04-30T09:13:05.098Z,17.54
2023-04-30T09:15:33.961Z,17.81
2023-04-30T09:18:18.732Z,17.69
2023-04-30T09:21:02.078Z,17.12
2023-04-30T09:23:29.629Z,17.42
2023-04-30T09:25:57.474Z,17.58
2023-04-30T09:28:26.811Z,17.48
2023-04-30T09:30:54.155Z,17.31
2023-04-30T09:33:21.090Z,17.44
2023-04-30T09:35:48.250Z,17.08
2023-04-30T09:38:32.284Z,18.35
2023-04-30T09:41:01.612Z,18.03
2023-04-30T09:43:32.019Z,17.72
2023-04-30T09:46:01.851Z,17.75
2023-04-30T09:48:28.879Z,18.28
2023-04-30T09:50:56.004Z,17.67
2023-04-30T09:53:23.965Z,17.97
2023-04-30T09:55:51.806Z,18.80
2023-04-30T09:58:20.021Z,19.17
2023-04-30T10:00:48.638Z,19.03
2023-04-30T10:03:16.399Z,19.38
2023-04-30T10:05:47.725Z,18.64
2023-04-30T10:08:40.370Z,18.10
2023-04-30T10:11:08.583Z,18.58
2023-04-30T10:13:55.980Z,18.37
2023-04-30T10:16:48.081Z,18.69
2023-04-30T10:19:20.890Z,19.56
2023-04-30T10:21:48.481Z,19.85
2023-04-30T10:24:18.589Z,19.54
2023-04-30T10:26:47.549Z,19.52
2023-04-30T10:29:15.613Z,19.59
2023-04-30T10:31:45.476Z,19.24
2023-04-30T10:34:39.847Z,19.27
2023-04-30T10:37:22.742Z,18.56
2023-04-30T10:39:52.296Z,18.32
2023-04-30T10:42:19.601Z,19.04
2023-04-30T10:44:46.483Z,19.14
2023-04-30T10:47:13.270Z,19.50
2023-04-30T10:50:09.798Z,19.71
2023-04-30T10:52:38.542Z,19.63
2023-04-30T10:55:09.590Z,20.27
2023-04-30T10:57:44.098Z,20.08
2023-04-30T11:00:10.823Z,19.68
2023-04-30T11:02:45.373Z,19.61
2023-04-30T11:05:14.846Z,19.20
2023-04-30T11:07:58.322Z,20.24
2023-04-30T11:10:27.665Z,19.76
2023-04-30T11:12:56.171Z,19.21
2023-04-30T11:15:27.746Z,19.64
2023-04-30T11:17:59.717Z,19.88
2023-04-30T11:20:28.063Z,19.98
2023-04-30T11:25:55.086Z,20.84
2023-04-30T11:28:25.614Z,20.52
2023-04-30T11:30:57.999Z,20.54
2023-04-30T11:33:29.494Z,20.34
2023-04-30T11:35:58.032Z,20.60
2023-04-30T11:38:38.107Z,20.40
2023-04-30T11:41:05.636Z,20.18
2023-04-30T11:43:33.977Z,20.64
2023-04-30T11:46:08.686Z,21.51
2023-04-30T11:48:40.644Z,20.68
2023-04-30T11:51:16.591Z,21.21
2023-04-30T11:53:43.874Z,20.50
2023-04-30T11:56:10.732Z,21.59
2023-04-30T11:58:39.442Z,21.95
2023-04-30T12:01:10.378Z,20.48
2023-04-30T12:03:48.106Z,20.17
2023-04-30T12:06:26.598Z,19.59
2023-04-30T12:08:57.779Z,21.57
2023-04-30T12:11:29.392Z,21.91
2023-04-30T12:14:03.745Z,20.51
2023-04-30T12:16:45.757Z,21.01
2023-04-30T12:19:13.374Z,20.80
2023-04-30T12:21:42.549Z,21.72
2023-04-30T12:24:12.076Z,21.55
2023-04-30T12:26:40.590Z,21.53
2023-04-30T12:29:15.384Z,22.32
2023-04-30T12:31:43.380Z,20.16
2023-04-30T12:34:12.912Z,20.85
2023-04-30T12:36:43.060Z,22.41
2023-04-30T12:39:16.311Z,22.21
2023-04-30T12:41:47.889Z,21.77
2023-04-30T12:44:24.964Z,21.06
2023-04-30T12:47:01.123Z,21.34
2023-04-30T12:49:34.443Z,21.75
2023-04-30T12:52:09.777Z,22.59
2023-04-30T12:54:37.709Z,23.53
2023-04-30T12:57:05.401Z,21.47
2023-04-30T12:59:34.310Z,22.62
2023-04-30T13:02:09.202Z,22.46
2023-04-30T13:04:36.811Z,22.13
2023-04-30T13:07:04.806Z,22.47
2023-04-30T13:09:36.827Z,21.50
2023-04-30T13:12:04.886Z,21.61
2023-04-30T13:14:32.779Z,22.40
2023-04-30T13:17:00.151Z,23.04
2023-04-30T13:19:27.124Z,23.24
2023-04-30T13:21:53.841Z,22.12
2023-04-30T13:24:20.660Z,21.38
2023-04-30T13:26:48.461Z,19.55
2023-04-30T13:29:15.241Z,21.32
2023-04-30T13:31:42.712Z,20.79
2023-04-30T13:34:10.314Z,20.81
2023-04-30T13:36:37.149Z,20.33
2023-04-30T13:39:05.136Z,20.32
2023-04-30T13:41:32.301Z,21.58
2023-04-30T13:44:00.374Z,22.69
2023-04-30T13:46:27.308Z,21.43
2023-04-30T13:48:54.260Z,23.14
2023-04-30T13:51:21.296Z,23.04
2023-04-30T13:53:48.291Z,20.86
2023-04-30T13:56:15.709Z,20.40
2023-04-30T13:58:42.554Z,19.77
2023-04-30T14:01:10.649Z,19.76
2023-04-30T14:03:37.832Z,21.02
2023-04-30T14:06:06.250Z,22.14
2023-04-30T14:08:34.003Z,23.09
2023-04-30T14:11:01.480Z,22.05
2023-04-30T14:13:28.338Z,22.72
2023-04-30T14:15:56.267Z,22.03
2023-04-30T14:18:23.531Z,23.88
2023-04-30T14:20:50.428Z,23.30
2023-04-30T14:23:17.382Z,23.46
2023-04-30T14:25:44.753Z,23.15
2023-04-30T14:28:12.212Z,24.43
2023-04-30T14:30:39.169Z,21.55
2023-04-30T14:33:06.246Z,21.61
2023-04-30T14:35:33.826Z,21.48
2023-04-30T14:38:00.701Z,20.47
2023-04-30T14:40:27.503Z,21.72
2023-04-30T14:42:54.283Z,22.84
2023-04-30T14:45:21.069Z,22.01
2023-04-30T14:47:47.900Z,20.91
2023-04-30T14:50:14.731Z,21.04
2023-04-30T14:52:42.391Z,21.56
2023-04-30T14:55:09.446Z,20.73
2023-04-30T14:57:36.750Z,20.51
2023-04-30T15:00:04.624Z,20.42
2023-04-30T15:02:31.571Z,20.01
2023-04-30T15:04:58.557Z,20.66
2023-04-30T15:07:25.420Z,21.49
2023-04-30T15:09:53.012Z,21.32
2023-04-30T15:12:20.399Z,21.94
2023-04-30T15:14:47.238Z,22.30
2023-04-30T15:17:14.194Z,22.44
2023-04-30T15:19:41.027Z,22.52
2023-04-30T15:22:08.159Z,22.10
2023-04-30T15:24:35.044Z,22.53
2023-04-30T15:27:02.257Z,21.96
2023-04-30T15:29:29.053Z,21.58
2023-04-30T15:31:56.077Z,21.37
2023-04-30T15:34:23.232Z,20.47
2023-04-30T15:36:50.365Z,21.17
2023-04-30T15:39:18.066Z,20.56
2023-04-30T15:41:45.220Z,20.41
2023-04-30T15:44:11.956Z,20.88
2023-04-30T15:46:38.786Z,20.87
2023-04-30T15:49:05.600Z,20.17
2023-04-30T15:51:33.475Z,21.06
2023-04-30T15:54:00.248Z,21.58
2023-04-30T15:56:27.231Z,21.23
2023-04-30T15:58:54.588Z,20.82
2023-04-30T16:01:23.554Z,19.81
2023-04-30T16:03:50.590Z,19.98
2023-04-30T16:06:18.072Z,19.81
2023-04-30T16:08:46.244Z,20.40
2023-04-30T16:11:13.123Z,21.15
2023-04-30T16:13:39.906Z,20.14
2023-04-30T16:16:08.948Z,19.63
2023-04-30T16:18:35.762Z,19.79
2023-04-30T16:21:02.751Z,19.85
2023-04-30T16:23:29.670Z,21.15
2023-04-30T16:25:56.655Z,20.81
2023-04-30T16:28:23.791Z,21.97
2023-04-30T16:30:51.050Z,21.67
2023-04-30T16:33:17.937Z,21.41
2023-04-30T16:35:44.946Z,20.89
2023-04-30T16:38:11.794Z,21.68
2023-04-30T16:40:38.738Z,21.70
2023-04-30T16:43:08.522Z,22.17
2023-04-30T16:45:35.968Z,22.65
2023-04-30T16:48:03.029Z,21.73
2023-04-30T16:50:30.101Z,22.77
2023-04-30T16:52:57.041Z,22.58
2023-04-30T16:55:23.882Z,21.47
2023-04-30T16:57:50.953Z,21.53
2023-04-30T17:00:18.961Z,21.80
2023-04-30T17:02:48.902Z,21.56
2023-04-30T17:05:16.476Z,21.42
2023-04-30T17:07:45.971Z,21.20
2023-04-30T17:10:13.555Z,21.56
2023-04-30T17:12:40.402Z,22.00
2023-04-30T17:15:07.736Z,22.33
2023-04-30T17:17:34.480Z,21.64
2023-04-30T17:20:01.487Z,21.59
2023-04-30T17:22:28.368Z,21.43
2023-04-30T17:24:55.116Z,21.98
2023-04-30T17:27:21.892Z,21.98
2023-04-30T17:29:48.917Z,21.61
2023-04-30T17:32:17.866Z,20.98
2023-04-30T17:34:45.066Z,21.13
2023-04-30T17:37:12.215Z,20.92
2023-04-30T17:39:38.926Z,19.62
2023-04-30T17:42:05.757Z,19.06
2023-04-30T17:44:33.886Z,18.39
2023-04-30T17:47:00.631Z,18.32
2023-04-30T17:49:28.190Z,18.37
2023-04-30T17:51:54.939Z,17.88
2023-04-30T17:54:21.708Z,17.62
2023-04-30T17:56:48.827Z,17.33
2023-04-30T17:59:16.213Z,17.11
2023-04-30T18:01:43.065Z,16.95
2023-04-30T18:04:10.258Z,16.83
2023-04-30T18:06:37.189Z,16.77
2023-04-30T18:09:04.544Z,16.62
2023-04-30T18:11:31.348Z,16.49
2023-04-30T18:13:58.075Z,16.42
2023-04-30T18:16:25.028Z,16.25
2023-04-30T18:18:51.866Z,16.16
2023-04-30T18:21:18.887Z,16.05
2023-04-30T18:23:45.752Z,15.96
2023-04-30T18:26:12.502Z,15.83
2023-04-30T18:28:39.461Z,15.76
2023-04-30T18:31:06.339Z,15.63
2023-04-30T18:33:33.404Z,15.55
2023-04-30T18:36:05.359Z,15.45
2023-04-30T18:38:32.669Z,15.38
2023-04-30T18:41:00.350Z,15.31
2023-04-30T18:43:27.147Z,15.23
2023-04-30T18:45:53.911Z,15.15
2023-04-30T18:48:23.151Z,15.11
2023-04-30T18:50:50.303Z,15.05
2023-04-30T18:53:17.936Z,14.99
2023-04-30T18:55:45.443Z,14.89
2023-04-30T18:58:12.468Z,14.85
2023-04-30T19:00:43.391Z,14.73
2023-04-30T19:03:10.722Z,14.68
2023-04-30T19:05:38.016Z,14.71
2023-04-30T19:08:04.890Z,14.59
2023-04-30T19:10:31.695Z,14.56
2023-04-30T19:12:58.736Z,14.48
2023-04-30T19:15:25.947Z,14.52
2023-04-30T19:17:52.794Z,14.40
2023-04-30T19:20:19.570Z,14.24
2023-04-30T19:22:47.949Z,14.26
2023-04-30T19:25:15.963Z,14.23
2023-04-30T19:27:44.480Z,14.14
2023-04-30T19:30:12.238Z,14.13
2023-04-30T19:32:39.097Z,14.12
2023-04-30T19:35:06.536Z,13.99
2023-04-30T19:37:33.333Z,13.98
2023-04-30T19:40:00.014Z,13.91
2023-04-30T19:42:26.919Z,13.84
2023-04-30T19:44:54.491Z,13.78
2023-04-30T19:47:23.032Z,13.70
2023-04-30T19:49:49.763Z,13.73
2023-04-30T19:52:16.566Z,13.61
2023-04-30T19:54:48.696Z,13.51
2023-04-30T19:57:15.601Z,13.51
2023-04-30T19:59:42.337Z,13.48
2023-04-30T20:02:09.780Z,13.47
2023-04-30T20:04:37.349Z,13.51
2023-04-30T20:07:04.752Z,13.60
2023-04-30T20:09:31.559Z,13.56
2023-04-30T20:11:58.421Z,13.57
2023-04-30T20:14:25.345Z,13.54
2023-04-30T20:16:54.574Z,13.42
2023-04-30T20:19:22.370Z,13.43
2023-04-30T20:21:49.810Z,13.39
2023-04-30T20:24:16.700Z,13.35
2023-04-30T20:26:43.824Z,13.32
2023-04-30T20:29:10.989Z,13.26
2023-04-30T20:31:37.961Z,13.24
2023-04-30T20:34:05.402Z,13.11
2023-04-30T20:36:32.711Z,13.08
2023-04-30T20:38:59.534Z,12.99
2023-04-30T20:41:26.865Z,12.99
2023-04-30T20:43:54.324Z,12.94
2023-04-30T20:46:24.140Z,12.89
2023-04-30T20:48:51.609Z,12.86
2023-04-30T20:51:18.802Z,12.83
2023-04-30T20:53:45.764Z,12.77
2023-04-30T20:56:12.671Z,12.73
2023-04-30T20:58:39.588Z,12.68
2023-04-30T21:01:07.681Z,12.62
2023-04-30T21:03:34.671Z,12.63
2023-04-30T21:06:01.535Z,12.59
2023-04-30T21:08:28.362Z,12.48
2023-04-30T21:10:55.260Z,12.49
2023-04-30T21:13:22.265Z,12.40
2023-04-30T21:15:53.580Z,12.32
2023-04-30T21:18:20.422Z,12.19
2023-04-30T21:20:47.480Z,12.16
2023-04-30T21:23:14.849Z,12.11
2023-04-30T21:25:41.571Z,12.08
2023-04-30T21:28:08.320Z,12.03
2023-04-30T21:30:36.804Z,11.91
2023-04-30T21:33:04.984Z,11.93
2023-04-30T21:35:33.264Z,11.87
2023-04-30T21:38:00.181Z,11.89
2023-04-30T21:40:27.134Z,11.82
2023-04-30T21:42:54.192Z,11.70
2023-04-30T21:45:21.251Z,11.64
2023-04-30T21:47:48.858Z,11.72
2023-04-30T21:50:15.695Z,11.64
2023-04-30T21:52:42.602Z,11.61
2023-04-30T21:55:09.951Z,11.60
2023-04-30T21:57:36.713Z,11.55
2023-04-30T22:00:06.909Z,11.52
2023-04-30T22:02:33.702Z,11.46
2023-04-30T22:05:01.409Z,11.48
2023-04-30T22:07:28.379Z,11.54
2023-04-30T22:09:55.368Z,11.47
2023-04-30T22:12:25.252Z,11.34
2023-04-30T22:14:55.638Z,11.29
2023-04-30T22:17:22.985Z,11.48
2023-04-30T22:19:49.818Z,11.51
2023-04-30T22:22:16.868Z,11.39
2023-04-30T22:24:43.719Z,11.31
2023-04-30T22:27:10.467Z,11.37
2023-04-30T22:29:37.292Z,11.20
2023-04-30T22:32:04.962Z,11.27
2023-04-30T22:34:39.084Z,11.22
2023-04-30T22:37:06.590Z,11.10
2023-04-30T22:39:33.595Z,11.11
2023-04-30T22:42:00.474Z,11.02
2023-04-30T22:44:27.401Z,10.99
2023-04-30T22:46:57.113Z,10.92
2023-04-30T22:49:31.711Z,10.88
2023-04-30T22:51:59.123Z,10.72
2023-04-30T22:54:26.066Z,10.88
2023-04-30T22:56:52.813Z,10.85
2023-04-30T22:59:19.544Z,10.74
2023-04-30T23:01:46.313Z,10.49
2023-04-30T23:04:13.937Z,10.59
2023-04-30T23:06:41.722Z,10.62
2023-04-30T23:09:08.992Z,10.54
2023-04-30T23:11:35.921Z,10.40
2023-04-30T23:14:02.765Z,10.50
2023-04-30T23:16:29.528Z,10.50
2023-04-30T23:18:56.934Z,10.43
2023-04-30T23:21:23.664Z,10.18
2023-04-30T23:23:50.604Z,10.28
2023-04-30T23:26:17.542Z,10.21
2023-04-30T23:28:44.298Z,10.24
2023-04-30T23:31:11.062Z,10.26
2023-04-30T23:33:38.344Z,10.24
2023-04-30T23:36:05.452Z,10.09
2023-04-30T23:38:32.364Z,10.18
2023-04-30T23:40:59.437Z,9.81
2023-04-30T23:43:26.128Z,9.85
2023-04-30T23:45:52.907Z,9.64
2023-04-30T23:48:19.669Z,9.56
2023-04-30T23:50:47.438Z,9.86
2023-04-30T23:53:17.362Z,9.68
2023-04-30T23:55:44.272Z,9.87
2023-04-30T23:58:11.106Z,9.89
